sensor_id;sensor_type;location;lat;lon;timestamp;temperature;humidity
37956;DHT22;23776;51.592;7.180;2023-04-03T00:00:47;3.40;1.00
37956;DHT22;23776;51.592;7.180;2023-04-03T00:03:14;3.40;1.00
37956;DHT22;23776;51.592;7.180;2023-04-03T00:05:40;3.40;1.00
37956;DHT22;23776;51.592;7.180;2023-04-03T00:08:07;3.40;1.00
37956;DHT22;23776;51.592;7.180;2023-04-03T00:10:35;3.40;1.20
37956;DHT22;23776;51.592;7.180;2023-04-03T00:13:01;3.40;1.00
37956;DHT22;23776;51.592;7.180;2023-04-03T00:15:27;3.50;1.00
37956;DHT22;23776;51.592;7.180;2023-04-03T00:17:52;3.50;1.00
37956;DHT22;23776;51.592;7.180;2023-04-03T00:20:18;3.50;1.00
37956;DHT22;23776;51.592;7.180;2023-04-03T00:22:43;3.50;1.00
37956;DHT22;23776;51.592;7.180;2023-04-03T00:25:09;3.50;1.00
37956;DHT22;23776;51.592;7.180;2023-04-03T00:27:37;3.50;1.00
37956;DHT22;23776;51.592;7.180;2023-04-03T00:30:03;3.50;1.00
37956;DHT22;23776;51.592;7.180;2023-04-03T00:32:29;3.60;1.00
37956;DHT22;23776;51.592;7.180;2023-04-03T00:34:55;3.60;1.00
37956;DHT22;23776;51.592;7.180;2023-04-03T00:37:20;3.70;1.00
37956;DHT22;23776;51.592;7.180;2023-04-03T00:39:46;3.70;1.00
37956;DHT22;23776;51.592;7.180;2023-04-03T00:42:12;3.70;1.00
37956;DHT22;23776;51.592;7.180;2023-04-03T00:47:06;3.70;1.00
37956;DHT22;23776;51.592;7.180;2023-04-03T00:49:32;3.70;1.00
37956;DHT22;23776;51.592;7.180;2023-04-03T00:51:58;3.70;1.00
37956;DHT22;23776;51.592;7.180;2023-04-03T00:54:25;3.70;1.00
37956;DHT22;23776;51.592;7.180;2023-04-03T00:56:52;3.70;1.00
37956;DHT22;23776;51.592;7.180;2023-04-03T00:59:21;3.80;1.00
37956;DHT22;23776;51.592;7.180;2023-04-03T01:01:51;3.70;1.00
37956;DHT22;23776;51.592;7.180;2023-04-03T01:04:35;3.70;99.90
37956;DHT22;23776;51.592;7.180;2023-04-03T01:07:05;3.70;99.90
37956;DHT22;23776;51.592;7.180;2023-04-03T01:09:33;3.70;99.90
37956;DHT22;23776;51.592;7.180;2023-04-03T01:12:32;3.70;99.90
37956;DHT22;23776;51.592;7.180;2023-04-03T01:15:01;3.70;99.90
37956;DHT22;23776;51.592;7.180;2023-04-03T01:17:35;3.70;99.90
37956;DHT22;23776;51.592;7.180;2023-04-03T01:25:19;3.70;99.90
37956;DHT22;23776;51.592;7.180;2023-04-03T01:27:44;3.70;99.90
37956;DHT22;23776;51.592;7.180;2023-04-03T01:30:11;3.70;99.90
37956;DHT22;23776;51.592;7.180;2023-04-03T01:32:38;3.70;38.80
37956;DHT22;23776;51.592;7.180;2023-04-03T01:35:04;3.60;85.50
37956;DHT22;23776;51.592;7.180;2023-04-03T01:37:29;3.70;1.00
37956;DHT22;23776;51.592;7.180;2023-04-03T01:39:56;3.70;9.40
37956;DHT22;23776;51.592;7.180;2023-04-03T01:42:22;3.60;1.00
37956;DHT22;23776;51.592;7.180;2023-04-03T01:44:47;3.60;1.00
37956;DHT22;23776;51.592;7.180;2023-04-03T01:47:13;3.60;1.00
37956;DHT22;23776;51.592;7.180;2023-04-03T01:49:38;3.60;1.00
37956;DHT22;23776;51.592;7.180;2023-04-03T01:52:04;3.60;1.00
37956;DHT22;23776;51.592;7.180;2023-04-03T01:54:29;3.60;1.00
37956;DHT22;23776;51.592;7.180;2023-04-03T01:56:55;3.50;1.00
37956;DHT22;23776;51.592;7.180;2023-04-03T01:59:21;3.50;1.00
37956;DHT22;23776;51.592;7.180;2023-04-03T02:01:46;3.50;1.00
37956;DHT22;23776;51.592;7.180;2023-04-03T02:04:12;3.60;6.30
37956;DHT22;23776;51.592;7.180;2023-04-03T02:06:38;3.50;62.40
37956;DHT22;23776;51.592;7.180;2023-04-03T02:09:04;2.70;99.90
37956;DHT22;23776;51.592;7.180;2023-04-03T02:11:30;3.60;54.80
37956;DHT22;23776;51.592;7.180;2023-04-03T02:13:55;3.50;5.70
37956;DHT22;23776;51.592;7.180;2023-04-03T02:16:21;3.40;18.10
37956;DHT22;23776;51.592;7.180;2023-04-03T02:18:46;3.40;50.50
37956;DHT22;23776;51.592;7.180;2023-04-03T02:21:12;3.40;27.30
37956;DHT22;23776;51.592;7.180;2023-04-03T02:23:38;3.40;17.40
37956;DHT22;23776;51.592;7.180;2023-04-03T02:26:11;3.30;14.30
37956;DHT22;23776;51.592;7.180;2023-04-03T02:28:37;3.30;1.00
37956;DHT22;23776;51.592;7.180;2023-04-03T02:31:03;3.30;1.00
37956;DHT22;23776;51.592;7.180;2023-04-03T02:33:30;3.20;46.30
37956;DHT22;23776;51.592;7.180;2023-04-03T02:35:56;3.30;37.80
37956;DHT22;23776;51.592;7.180;2023-04-03T02:38:22;3.20;8.10
37956;DHT22;23776;51.592;7.180;2023-04-03T02:40:48;3.20;41.60
37956;DHT22;23776;51.592;7.180;2023-04-03T02:43:14;3.10;19.10
37956;DHT22;23776;51.592;7.180;2023-04-03T02:45:40;3.20;99.90
37956;DHT22;23776;51.592;7.180;2023-04-03T02:48:05;3.20;68.80
37956;DHT22;23776;51.592;7.180;2023-04-03T02:50:31;3.20;13.90
37956;DHT22;23776;51.592;7.180;2023-04-03T02:52:56;3.20;26.80
37956;DHT22;23776;51.592;7.180;2023-04-03T02:55:22;3.10;35.60
37956;DHT22;23776;51.592;7.180;2023-04-03T02:57:47;3.10;90.40
37956;DHT22;23776;51.592;7.180;2023-04-03T03:00:13;3.10;89.60
37956;DHT22;23776;51.592;7.180;2023-04-03T03:02:40;3.00;99.90
37956;DHT22;23776;51.592;7.180;2023-04-03T03:05:06;3.00;99.90
37956;DHT22;23776;51.592;7.180;2023-04-03T03:07:32;3.00;99.90
37956;DHT22;23776;51.592;7.180;2023-04-03T03:09:58;3.00;99.90
37956;DHT22;23776;51.592;7.180;2023-04-03T03:12:23;2.90;99.90
37956;DHT22;23776;51.592;7.180;2023-04-03T03:14:50;2.90;99.90
37956;DHT22;23776;51.592;7.180;2023-04-03T03:17:16;3.00;99.90
37956;DHT22;23776;51.592;7.180;2023-04-03T03:19:42;2.90;99.90
37956;DHT22;23776;51.592;7.180;2023-04-03T03:22:07;2.90;99.90
37956;DHT22;23776;51.592;7.180;2023-04-03T03:24:33;2.90;99.90
37956;DHT22;23776;51.592;7.180;2023-04-03T03:26:59;2.90;99.90
37956;DHT22;23776;51.592;7.180;2023-04-03T03:29:24;2.80;99.90
37956;DHT22;23776;51.592;7.180;2023-04-03T03:31:50;2.90;99.90
37956;DHT22;23776;51.592;7.180;2023-04-03T03:34:15;2.90;99.90
37956;DHT22;23776;51.592;7.180;2023-04-03T03:36:41;2.80;99.90
37956;DHT22;23776;51.592;7.180;2023-04-03T03:39:07;2.80;99.90
37956;DHT22;23776;51.592;7.180;2023-04-03T03:41:32;2.80;99.90
37956;DHT22;23776;51.592;7.180;2023-04-03T03:43:58;2.70;99.90
37956;DHT22;23776;51.592;7.180;2023-04-03T03:48:49;2.70;99.90
37956;DHT22;23776;51.592;7.180;2023-04-03T03:51:15;2.60;99.90
37956;DHT22;23776;51.592;7.180;2023-04-03T03:53:41;2.60;99.90
37956;DHT22;23776;51.592;7.180;2023-04-03T03:56:06;2.50;99.90
37956;DHT22;23776;51.592;7.180;2023-04-03T03:58:33;2.60;99.90
37956;DHT22;23776;51.592;7.180;2023-04-03T04:01:02;2.50;99.90
37956;DHT22;23776;51.592;7.180;2023-04-03T04:03:28;2.50;99.90
37956;DHT22;23776;51.592;7.180;2023-04-03T04:05:54;2.50;99.90
37956;DHT22;23776;51.592;7.180;2023-04-03T04:08:20;2.50;99.90
37956;DHT22;23776;51.592;7.180;2023-04-03T04:10:46;2.40;99.90
37956;DHT22;23776;51.592;7.180;2023-04-03T04:13:11;2.40;99.90
37956;DHT22;23776;51.592;7.180;2023-04-03T04:15:37;2.50;1.00
37956;DHT22;23776;51.592;7.180;2023-04-03T04:18:02;2.40;99.90
37956;DHT22;23776;51.592;7.180;2023-04-03T04:20:29;2.50;99.90
37956;DHT22;23776;51.592;7.180;2023-04-03T04:22:54;2.40;99.90
37956;DHT22;23776;51.592;7.180;2023-04-03T04:25:20;2.40;99.90
37956;DHT22;23776;51.592;7.180;2023-04-03T04:27:45;2.30;99.90
37956;DHT22;23776;51.592;7.180;2023-04-03T04:30:12;2.30;99.90
37956;DHT22;23776;51.592;7.180;2023-04-03T04:32:38;2.30;99.90
37956;DHT22;23776;51.592;7.180;2023-04-03T04:35:04;2.30;99.90
37956;DHT22;23776;51.592;7.180;2023-04-03T04:37:31;2.30;99.90
37956;DHT22;23776;51.592;7.180;2023-04-03T04:39:56;2.30;99.90
37956;DHT22;23776;51.592;7.180;2023-04-03T04:44:48;2.30;1.00
37956;DHT22;23776;51.592;7.180;2023-04-03T04:47:13;2.20;1.00
37956;DHT22;23776;51.592;7.180;2023-04-03T04:49:39;2.20;1.00
37956;DHT22;23776;51.592;7.180;2023-04-03T04:52:04;2.10;1.00
37956;DHT22;23776;51.592;7.180;2023-04-03T04:54:30;2.10;1.00
37956;DHT22;23776;51.592;7.180;2023-04-03T04:56:56;2.10;1.00
37956;DHT22;23776;51.592;7.180;2023-04-03T04:59:21;2.10;1.00
37956;DHT22;23776;51.592;7.180;2023-04-03T05:01:47;2.00;1.00
37956;DHT22;23776;51.592;7.180;2023-04-03T05:04:12;2.10;1.00
37956;DHT22;23776;51.592;7.180;2023-04-03T05:06:39;2.00;1.00
37956;DHT22;23776;51.592;7.180;2023-04-03T05:09:05;2.10;1.00
37956;DHT22;23776;51.592;7.180;2023-04-03T05:11:30;2.10;1.00
37956;DHT22;23776;51.592;7.180;2023-04-03T05:13:56;2.00;1.00
37956;DHT22;23776;51.592;7.180;2023-04-03T05:16:21;2.00;1.00
37956;DHT22;23776;51.592;7.180;2023-04-03T05:18:47;3.10;1.00
37956;DHT22;23776;51.592;7.180;2023-04-03T05:21:12;2.00;1.00
37956;DHT22;23776;51.592;7.180;2023-04-03T05:23:38;2.00;1.00
37956;DHT22;23776;51.592;7.180;2023-04-03T05:26:04;2.00;1.00
37956;DHT22;23776;51.592;7.180;2023-04-03T05:28:30;2.00;1.00
37956;DHT22;23776;51.592;7.180;2023-04-03T05:30:57;2.00;1.00
37956;DHT22;23776;51.592;7.180;2023-04-03T05:33:24;2.00;1.00
37956;DHT22;23776;51.592;7.180;2023-04-03T05:35:50;2.00;1.00
37956;DHT22;23776;51.592;7.180;2023-04-03T05:38:15;2.00;1.00
37956;DHT22;23776;51.592;7.180;2023-04-03T05:40:41;2.10;1.00
37956;DHT22;23776;51.592;7.180;2023-04-03T05:43:07;2.10;1.00
37956;DHT22;23776;51.592;7.180;2023-04-03T05:45:32;2.10;1.00
37956;DHT22;23776;51.592;7.180;2023-04-03T05:47:58;2.10;1.00
37956;DHT22;23776;51.592;7.180;2023-04-03T05:50:24;2.00;1.00
37956;DHT22;23776;51.592;7.180;2023-04-03T05:52:50;2.10;1.00
37956;DHT22;23776;51.592;7.180;2023-04-03T05:55:17;2.10;99.90
37956;DHT22;23776;51.592;7.180;2023-04-03T05:57:43;2.10;99.90
37956;DHT22;23776;51.592;7.180;2023-04-03T06:00:11;2.20;99.90
37956;DHT22;23776;51.592;7.180;2023-04-03T06:02:38;2.20;99.90
37956;DHT22;23776;51.592;7.180;2023-04-03T06:05:04;2.20;99.90
37956;DHT22;23776;51.592;7.180;2023-04-03T06:07:29;2.20;99.90
37956;DHT22;23776;51.592;7.180;2023-04-03T06:09:56;2.20;99.90
37956;DHT22;23776;51.592;7.180;2023-04-03T06:12:23;2.20;99.90
37956;DHT22;23776;51.592;7.180;2023-04-03T06:14:48;2.30;99.90
37956;DHT22;23776;51.592;7.180;2023-04-03T06:17:15;2.30;99.90
37956;DHT22;23776;51.592;7.180;2023-04-03T06:19:42;2.30;83.40
37956;DHT22;23776;51.592;7.180;2023-04-03T06:22:07;2.30;55.20
37956;DHT22;23776;51.592;7.180;2023-04-03T06:24:33;2.40;99.90
37956;DHT22;23776;51.592;7.180;2023-04-03T06:26:59;2.40;1.00
37956;DHT22;23776;51.592;7.180;2023-04-03T06:29:25;2.50;1.00
37956;DHT22;23776;51.592;7.180;2023-04-03T06:31:51;2.50;1.00
37956;DHT22;23776;51.592;7.180;2023-04-03T06:34:17;2.50;1.00
37956;DHT22;23776;51.592;7.180;2023-04-03T06:36:44;2.60;1.00
37956;DHT22;23776;51.592;7.180;2023-04-03T06:39:21;2.70;99.90
37956;DHT22;23776;51.592;7.180;2023-04-03T06:41:48;2.70;99.90
37956;DHT22;23776;51.592;7.180;2023-04-03T06:44:14;2.70;99.90
37956;DHT22;23776;51.592;7.180;2023-04-03T06:46:43;2.70;99.90
37956;DHT22;23776;51.592;7.180;2023-04-03T06:49:09;2.80;1.00
37956;DHT22;23776;51.592;7.180;2023-04-03T06:51:36;2.80;1.00
37956;DHT22;23776;51.592;7.180;2023-04-03T06:54:03;2.80;99.90
37956;DHT22;23776;51.592;7.180;2023-04-03T06:56:29;2.80;47.80
37956;DHT22;23776;51.592;7.180;2023-04-03T06:58:55;2.90;2.00
37956;DHT22;23776;51.592;7.180;2023-04-03T07:01:24;2.90;1.00
37956;DHT22;23776;51.592;7.180;2023-04-03T07:03:52;2.90;1.00
37956;DHT22;23776;51.592;7.180;2023-04-03T07:06:18;3.00;55.30
37956;DHT22;23776;51.592;7.180;2023-04-03T07:08:45;3.10;3.30
37956;DHT22;23776;51.592;7.180;2023-04-03T07:11:12;3.20;1.00
37956;DHT22;23776;51.592;7.180;2023-04-03T07:13:38;3.20;1.00
37956;DHT22;23776;51.592;7.180;2023-04-03T07:16:04;3.30;1.00
37956;DHT22;23776;51.592;7.180;2023-04-03T07:18:32;3.40;99.90
37956;DHT22;23776;51.592;7.180;2023-04-03T07:20:58;3.40;99.90
37956;DHT22;23776;51.592;7.180;2023-04-03T07:23:24;3.40;99.90
37956;DHT22;23776;51.592;7.180;2023-04-03T07:25:51;3.50;99.90
37956;DHT22;23776;51.592;7.180;2023-04-03T07:28:18;3.60;99.90
37956;DHT22;23776;51.592;7.180;2023-04-03T07:30:53;3.50;99.90
37956;DHT22;23776;51.592;7.180;2023-04-03T07:33:20;3.60;32.70
37956;DHT22;23776;51.592;7.180;2023-04-03T07:35:46;3.70;1.00
37956;DHT22;23776;51.592;7.180;2023-04-03T07:38:12;3.70;1.00
37956;DHT22;23776;51.592;7.180;2023-04-03T07:40:38;3.80;1.00
37956;DHT22;23776;51.592;7.180;2023-04-03T07:43:05;3.80;1.00
37956;DHT22;23776;51.592;7.180;2023-04-03T07:45:31;3.80;1.00
37956;DHT22;23776;51.592;7.180;2023-04-03T07:47:57;3.90;99.90
37956;DHT22;23776;51.592;7.180;2023-04-03T07:50:23;3.90;29.70
37956;DHT22;23776;51.592;7.180;2023-04-03T07:52:49;3.90;1.00
37956;DHT22;23776;51.592;7.180;2023-04-03T07:55:16;4.00;6.60
37956;DHT22;23776;51.592;7.180;2023-04-03T07:57:42;4.00;99.90
37956;DHT22;23776;51.592;7.180;2023-04-03T08:00:08;4.10;99.90
37956;DHT22;23776;51.592;7.180;2023-04-03T08:02:34;4.30;1.00
37956;DHT22;23776;51.592;7.180;2023-04-03T08:04:59;4.30;1.00
37956;DHT22;23776;51.592;7.180;2023-04-03T08:07:25;4.30;99.90
37956;DHT22;23776;51.592;7.180;2023-04-03T08:09:51;4.40;1.00
37956;DHT22;23776;51.592;7.180;2023-04-03T08:12:17;4.30;99.90
37956;DHT22;23776;51.592;7.180;2023-04-03T08:14:43;4.30;99.90
37956;DHT22;23776;51.592;7.180;2023-04-03T08:17:09;4.30;99.90
37956;DHT22;23776;51.592;7.180;2023-04-03T08:19:38;4.30;99.90
37956;DHT22;23776;51.592;7.180;2023-04-03T08:22:03;4.30;99.90
37956;DHT22;23776;51.592;7.180;2023-04-03T08:24:31;4.40;99.90
37956;DHT22;23776;51.592;7.180;2023-04-03T08:26:57;4.40;99.90
37956;DHT22;23776;51.592;7.180;2023-04-03T08:29:23;4.50;99.90
37956;DHT22;23776;51.592;7.180;2023-04-03T08:31:49;4.60;99.90
37956;DHT22;23776;51.592;7.180;2023-04-03T08:34:15;4.70;99.90
37956;DHT22;23776;51.592;7.180;2023-04-03T08:36:41;4.80;99.90
37956;DHT22;23776;51.592;7.180;2023-04-03T08:39:07;4.90;1.00
37956;DHT22;23776;51.592;7.180;2023-04-03T08:44:24;5.00;99.90
37956;DHT22;23776;51.592;7.180;2023-04-03T08:47:12;5.10;1.40
37956;DHT22;23776;51.592;7.180;2023-04-03T08:49:48;5.10;1.00
37956;DHT22;23776;51.592;7.180;2023-04-03T08:52:39;5.20;99.90
37956;DHT22;23776;51.592;7.180;2023-04-03T08:57:50;5.30;99.90
37956;DHT22;23776;51.592;7.180;2023-04-03T09:00:22;5.40;99.90
37956;DHT22;23776;51.592;7.180;2023-04-03T09:02:53;5.50;51.40
37956;DHT22;23776;51.592;7.180;2023-04-03T09:05:49;5.70;1.00
37956;DHT22;23776;51.592;7.180;2023-04-03T09:08:29;5.70;1.00
37956;DHT22;23776;51.592;7.180;2023-04-03T09:11:16;5.80;99.90
37956;DHT22;23776;51.592;7.180;2023-04-03T09:21:45;6.00;99.90
37956;DHT22;23776;51.592;7.180;2023-04-03T09:24:12;6.10;61.60
37956;DHT22;23776;51.592;7.180;2023-04-03T09:26:51;6.20;1.00
37956;DHT22;23776;51.592;7.180;2023-04-03T09:29:22;6.30;1.00
37956;DHT22;23776;51.592;7.180;2023-04-03T09:31:58;6.40;1.00
37956;DHT22;23776;51.592;7.180;2023-04-03T09:34:31;6.50;1.00
37956;DHT22;23776;51.592;7.180;2023-04-03T09:37:03;6.50;1.00
37956;DHT22;23776;51.592;7.180;2023-04-03T09:39:31;6.60;1.00
37956;DHT22;23776;51.592;7.180;2023-04-03T09:42:02;6.70;99.90
37956;DHT22;23776;51.592;7.180;2023-04-03T09:44:34;6.70;99.90
37956;DHT22;23776;51.592;7.180;2023-04-03T09:47:18;6.80;99.90
37956;DHT22;23776;51.592;7.180;2023-04-03T09:49:44;6.90;99.90
37956;DHT22;23776;51.592;7.180;2023-04-03T09:52:19;7.00;99.90
37956;DHT22;23776;51.592;7.180;2023-04-03T09:54:45;7.10;99.90
37956;DHT22;23776;51.592;7.180;2023-04-03T09:57:12;7.20;99.90
37956;DHT22;23776;51.592;7.180;2023-04-03T09:59:47;7.40;99.90
37956;DHT22;23776;51.592;7.180;2023-04-03T10:05:02;7.50;99.90
37956;DHT22;23776;51.592;7.180;2023-04-03T10:07:38;7.50;99.90
37956;DHT22;23776;51.592;7.180;2023-04-03T10:10:24;7.50;99.90
37956;DHT22;23776;51.592;7.180;2023-04-03T10:13:06;7.50;99.90
37956;DHT22;23776;51.592;7.180;2023-04-03T10:15:46;7.50;99.90
37956;DHT22;23776;51.592;7.180;2023-04-03T10:21:35;7.70;99.90
37956;DHT22;23776;51.592;7.180;2023-04-03T10:24:28;7.80;99.90
37956;DHT22;23776;51.592;7.180;2023-04-03T10:27:04;8.00;99.90
37956;DHT22;23776;51.592;7.180;2023-04-03T10:32:52;8.30;99.90
37956;DHT22;23776;51.592;7.180;2023-04-03T10:38:43;8.50;99.90
37956;DHT22;23776;51.592;7.180;2023-04-03T10:41:24;8.70;99.90
37956;DHT22;23776;51.592;7.180;2023-04-03T10:46:52;8.80;99.90
37956;DHT22;23776;51.592;7.180;2023-04-03T10:57:27;9.20;99.90
37956;DHT22;23776;51.592;7.180;2023-04-03T10:59:58;9.40;99.90
37956;DHT22;23776;51.592;7.180;2023-04-03T11:02:34;9.40;99.90
37956;DHT22;23776;51.592;7.180;2023-04-03T11:05:21;9.60;99.90
37956;DHT22;23776;51.592;7.180;2023-04-03T11:07:52;9.60;99.90
37956;DHT22;23776;51.592;7.180;2023-04-03T11:13:13;9.80;99.90
37956;DHT22;23776;51.592;7.180;2023-04-03T11:15:42;9.80;99.90
37956;DHT22;23776;51.592;7.180;2023-04-03T11:18:22;9.90;99.90
37956;DHT22;23776;51.592;7.180;2023-04-03T11:21:00;9.80;99.90
37956;DHT22;23776;51.592;7.180;2023-04-03T11:23:36;9.80;99.90
37956;DHT22;23776;51.592;7.180;2023-04-03T11:26:14;9.90;99.90
37956;DHT22;23776;51.592;7.180;2023-04-03T11:28:41;10.00;99.90
37956;DHT22;23776;51.592;7.180;2023-04-03T11:34:00;10.10;99.90
37956;DHT22;23776;51.592;7.180;2023-04-03T11:36:42;10.30;99.90
37956;DHT22;23776;51.592;7.180;2023-04-03T11:39:22;10.40;99.90
37956;DHT22;23776;51.592;7.180;2023-04-03T11:41:48;10.90;99.90
37956;DHT22;23776;51.592;7.180;2023-04-03T11:44:35;11.30;99.90
37956;DHT22;23776;51.592;7.180;2023-04-03T11:47:04;11.90;99.90
37956;DHT22;23776;51.592;7.180;2023-04-03T11:49:58;12.50;99.90
37956;DHT22;23776;51.592;7.180;2023-04-03T12:08:28;15.80;96.00
37956;DHT22;23776;51.592;7.180;2023-04-03T12:32:41;17.90;83.60
37956;DHT22;23776;51.592;7.180;2023-04-03T12:35:25;18.00;81.70
37956;DHT22;23776;51.592;7.180;2023-04-03T12:43:42;18.50;80.50
37956;DHT22;23776;51.592;7.180;2023-04-03T12:51:14;18.30;73.00
37956;DHT22;23776;51.592;7.180;2023-04-03T12:53:40;18.10;72.70
37956;DHT22;23776;51.592;7.180;2023-04-03T12:56:26;18.00;70.00
37956;DHT22;23776;51.592;7.180;2023-04-03T12:58:55;18.00;82.90
37956;DHT22;23776;51.592;7.180;2023-04-03T13:01:24;18.10;71.50
37956;DHT22;23776;51.592;7.180;2023-04-03T13:03:56;18.40;70.50
37956;DHT22;23776;51.592;7.180;2023-04-03T13:06:26;18.70;73.00
37956;DHT22;23776;51.592;7.180;2023-04-03T13:08:55;18.90;71.00
37956;DHT22;23776;51.592;7.180;2023-04-03T13:11:24;19.10;69.60
37956;DHT22;23776;51.592;7.180;2023-04-03T13:13:59;19.00;81.30
37956;DHT22;23776;51.592;7.180;2023-04-03T13:16:25;19.00;68.10
37956;DHT22;23776;51.592;7.180;2023-04-03T13:18:53;19.00;68.10
37956;DHT22;23776;51.592;7.180;2023-04-03T13:21:27;19.00;68.20
37956;DHT22;23776;51.592;7.180;2023-04-03T13:23:59;19.50;68.80
37956;DHT22;23776;51.592;7.180;2023-04-03T13:26:29;19.50;67.50
37956;DHT22;23776;51.592;7.180;2023-04-03T13:29:02;19.20;65.30
37956;DHT22;23776;51.592;7.180;2023-04-03T13:31:37;19.20;65.00
37956;DHT22;23776;51.592;7.180;2023-04-03T13:34:09;19.30;64.80
37956;DHT22;23776;51.592;7.180;2023-04-03T13:39:28;19.50;66.30
37956;DHT22;23776;51.592;7.180;2023-04-03T13:42:16;19.50;64.70
37956;DHT22;23776;51.592;7.180;2023-04-03T13:44:42;20.00;64.40
37956;DHT22;23776;51.592;7.180;2023-04-03T13:52:26;20.10;64.40
37956;DHT22;23776;51.592;7.180;2023-04-03T13:54:56;20.10;62.90
37956;DHT22;23776;51.592;7.180;2023-04-03T13:57:22;20.10;62.20
37956;DHT22;23776;51.592;7.180;2023-04-03T13:59:48;20.20;61.80
37956;DHT22;23776;51.592;7.180;2023-04-03T14:02:22;20.30;61.60
37956;DHT22;23776;51.592;7.180;2023-04-03T14:04:52;20.40;61.30
37956;DHT22;23776;51.592;7.180;2023-04-03T14:07:21;20.40;61.10
37956;DHT22;23776;51.592;7.180;2023-04-03T14:09:48;20.60;60.70
37956;DHT22;23776;51.592;7.180;2023-04-03T14:12:31;20.80;59.60
37956;DHT22;23776;51.592;7.180;2023-04-03T14:15:00;20.70;59.90
37956;DHT22;23776;51.592;7.180;2023-04-03T14:17:27;20.80;59.30
37956;DHT22;23776;51.592;7.180;2023-04-03T14:19:54;20.60;59.00
37956;DHT22;23776;51.592;7.180;2023-04-03T14:22:30;20.50;58.00
37956;DHT22;23776;51.592;7.180;2023-04-03T14:24:56;20.80;59.10
37956;DHT22;23776;51.592;7.180;2023-04-03T14:27:28;21.30;59.20
37956;DHT22;23776;51.592;7.180;2023-04-03T14:29:56;21.70;59.50
37956;DHT22;23776;51.592;7.180;2023-04-03T14:32:24;21.70;58.90
37956;DHT22;23776;51.592;7.180;2023-04-03T14:34:51;22.10;59.00
37956;DHT22;23776;51.592;7.180;2023-04-03T14:37:23;22.40;59.50
37956;DHT22;23776;51.592;7.180;2023-04-03T14:39:51;22.40;59.70
37956;DHT22;23776;51.592;7.180;2023-04-03T14:42:24;22.70;58.80
37956;DHT22;23776;51.592;7.180;2023-04-03T14:44:51;22.80;59.20
37956;DHT22;23776;51.592;7.180;2023-04-03T14:47:20;22.30;56.30
37956;DHT22;23776;51.592;7.180;2023-04-03T14:49:47;22.50;57.20
37956;DHT22;23776;51.592;7.180;2023-04-03T14:52:24;22.90;57.30
37956;DHT22;23776;51.592;7.180;2023-04-03T14:54:50;23.20;57.60
37956;DHT22;23776;51.592;7.180;2023-04-03T14:57:17;23.30;56.70
37956;DHT22;23776;51.592;7.180;2023-04-03T14:59:44;23.30;56.30
37956;DHT22;23776;51.592;7.180;2023-04-03T15:02:35;23.30;55.60
37956;DHT22;23776;51.592;7.180;2023-04-03T15:05:04;23.10;53.90
37956;DHT22;23776;51.592;7.180;2023-04-03T15:07:34;23.20;54.30
37956;DHT22;23776;51.592;7.180;2023-04-03T15:12:43;24.50;48.30
37956;DHT22;23776;51.592;7.180;2023-04-03T15:15:09;24.50;57.10
37956;DHT22;23776;51.592;7.180;2023-04-03T15:17:36;25.10;57.20
37956;DHT22;23776;51.592;7.180;2023-04-03T15:20:02;25.10;56.40
37956;DHT22;23776;51.592;7.180;2023-04-03T15:24:54;25.00;45.90
37956;DHT22;23776;51.592;7.180;2023-04-03T15:27:20;25.40;56.60
37956;DHT22;23776;51.592;7.180;2023-04-03T15:29:46;25.60;55.60
37956;DHT22;23776;51.592;7.180;2023-04-03T15:32:13;24.70;52.30
37956;DHT22;23776;51.592;7.180;2023-04-03T15:34:39;24.60;52.10
37956;DHT22;23776;51.592;7.180;2023-04-03T15:37:05;24.80;54.50
37956;DHT22;23776;51.592;7.180;2023-04-03T15:39:30;24.40;51.20
37956;DHT22;23776;51.592;7.180;2023-04-03T15:41:56;24.20;49.70
37956;DHT22;23776;51.592;7.180;2023-04-03T15:44:25;24.00;48.90
37956;DHT22;23776;51.592;7.180;2023-04-03T15:46:50;24.20;49.50
37956;DHT22;23776;51.592;7.180;2023-04-03T15:49:17;25.40;48.70
37956;DHT22;23776;51.592;7.180;2023-04-03T15:51:43;23.80;47.30
37956;DHT22;23776;51.592;7.180;2023-04-03T15:54:09;23.40;46.80
37956;DHT22;23776;51.592;7.180;2023-04-03T15:56:35;23.20;45.50
37956;DHT22;23776;51.592;7.180;2023-04-03T15:59:00;22.60;44.50
37956;DHT22;23776;51.592;7.180;2023-04-03T16:01:26;22.80;45.10
37956;DHT22;23776;51.592;7.180;2023-04-03T16:03:52;23.30;46.50
37956;DHT22;23776;51.592;7.180;2023-04-03T16:06:18;23.70;47.80
37956;DHT22;23776;51.592;7.180;2023-04-03T16:08:44;24.10;48.10
37956;DHT22;23776;51.592;7.180;2023-04-03T16:11:11;24.50;48.50
37956;DHT22;23776;51.592;7.180;2023-04-03T16:13:37;24.50;48.00
37956;DHT22;23776;51.592;7.180;2023-04-03T16:16:04;24.10;46.90
37956;DHT22;23776;51.592;7.180;2023-04-03T16:18:30;24.20;47.80
37956;DHT22;23776;51.592;7.180;2023-04-03T16:20:56;24.20;47.40
37956;DHT22;23776;51.592;7.180;2023-04-03T16:23:22;23.90;45.60
37956;DHT22;23776;51.592;7.180;2023-04-03T16:25:48;23.90;46.00
37956;DHT22;23776;51.592;7.180;2023-04-03T16:28:15;23.40;44.90
37956;DHT22;23776;51.592;7.180;2023-04-03T16:30:44;23.10;43.50
37956;DHT22;23776;51.592;7.180;2023-04-03T16:33:10;22.80;42.90
37956;DHT22;23776;51.592;7.180;2023-04-03T16:35:36;22.70;42.00
37956;DHT22;23776;51.592;7.180;2023-04-03T16:38:02;22.70;42.00
37956;DHT22;23776;51.592;7.180;2023-04-03T16:40:28;22.60;42.60
37956;DHT22;23776;51.592;7.180;2023-04-03T16:42:53;22.10;40.30
37956;DHT22;23776;51.592;7.180;2023-04-03T16:45:19;22.10;40.50
37956;DHT22;23776;51.592;7.180;2023-04-03T16:47:45;22.10;40.40
37956;DHT22;23776;51.592;7.180;2023-04-03T16:50:10;20.80;29.10
37956;DHT22;23776;51.592;7.180;2023-04-03T16:52:36;19.00;26.40
37956;DHT22;23776;51.592;7.180;2023-04-03T16:55:02;18.80;34.40
37956;DHT22;23776;51.592;7.180;2023-04-03T16:57:27;17.10;30.80
37956;DHT22;23776;51.592;7.180;2023-04-03T16:59:54;15.60;29.60
37956;DHT22;23776;51.592;7.180;2023-04-03T17:02:21;14.20;28.20
37956;DHT22;23776;51.592;7.180;2023-04-03T17:04:47;13.00;27.40
37956;DHT22;23776;51.592;7.180;2023-04-03T17:07:12;12.30;28.10
37956;DHT22;23776;51.592;7.180;2023-04-03T17:09:38;11.80;29.00
37956;DHT22;23776;51.592;7.180;2023-04-03T17:12:04;11.30;30.60
37956;DHT22;23776;51.592;7.180;2023-04-03T17:14:29;10.80;32.00
37956;DHT22;23776;51.592;7.180;2023-04-03T17:16:55;10.60;38.00
37956;DHT22;23776;51.592;7.180;2023-04-03T17:19:21;10.30;39.70
37956;DHT22;23776;51.592;7.180;2023-04-03T17:21:48;10.10;40.40
37956;DHT22;23776;51.592;7.180;2023-04-03T17:24:14;10.00;54.50
37956;DHT22;23776;51.592;7.180;2023-04-03T17:26:41;9.80;51.10
37956;DHT22;23776;51.592;7.180;2023-04-03T17:29:07;9.60;54.00
37956;DHT22;23776;51.592;7.180;2023-04-03T17:31:32;9.60;75.80
37956;DHT22;23776;51.592;7.180;2023-04-03T17:33:58;9.50;61.10
37956;DHT22;23776;51.592;7.180;2023-04-03T17:36:29;9.50;66.80
37956;DHT22;23776;51.592;7.180;2023-04-03T17:38:55;9.20;66.80
37956;DHT22;23776;51.592;7.180;2023-04-03T17:41:22;9.10;67.30
37956;DHT22;23776;51.592;7.180;2023-04-03T17:43:47;8.90;71.90
37956;DHT22;23776;51.592;7.180;2023-04-03T17:46:13;8.80;70.40
37956;DHT22;23776;51.592;7.180;2023-04-03T17:48:41;8.70;75.90